CheckWX is a tool to help pilots better visualize weather data.  It is not intended as a substitute for an official pre-flight weather briefing.

19:55:21 UTC

KMKG TAF
Muskegon County Airport
Muskegon, Michigan, USA
KMKG 112340Z 1200/1224 28005KT P6SM FEW040 FM121700 34010G18KT P6SM SKC

Jul-12@
00:00 UTC

Jul-12 @ 00:00 UTC

Jul-12@
17:00 UTC

Jul-12 @ 17:00 UTC

TAF KMKG 112340Z 1200/1224 28005KT P6SM FEW040

Expired

Wind
  • 280° at 5 KTS
Cloud Levels
  • Few at 4,000' AGL

Jul-12@
17:00 UTC

Jul-12 @ 17:00 UTC

Jul-13@
00:00 UTC

Jul-13 @ 00:00 UTC

FM121700 34010G18KT P6SM SKC

From

From Standard forecast or significant change

Wind
  • 340° at 10 KTS
  • {Gusting to 18 KTS
Cloud Levels
  • Clear skies